createdAt,value
2018-04-18T00:02:17.352Z,20.17
2018-04-18T00:04:43.614Z,19.53
2018-04-18T00:07:09.870Z,18.73
2018-04-18T00:09:36.110Z,18.47
2018-04-18T00:12:02.370Z,18.70
2018-04-18T00:14:28.630Z,20.77
2018-04-18T00:16:54.895Z,19.93
2018-04-18T00:19:21.123Z,19.73
2018-04-18T00:21:47.368Z,19.57
2018-04-18T00:24:13.631Z,19.03
2018-04-18T00:26:39.871Z,22.63
2018-04-18T00:29:06.174Z,20.70
2018-04-18T00:31:32.411Z,20.20
2018-04-18T00:33:58.644Z,20.87
2018-04-18T00:36:24.910Z,19.60
2018-04-18T00:38:51.147Z,20.43
2018-04-18T00:41:17.435Z,20.77
2018-04-18T00:43:43.723Z,20.50
2018-04-18T00:46:09.968Z,21.43
2018-04-18T00:48:36.226Z,19.47
2018-04-18T00:51:02.470Z,19.37
2018-04-18T00:53:28.768Z,18.43
2018-04-18T00:55:55.002Z,18.23
2018-04-18T00:58:21.243Z,18.03
2018-04-18T01:00:47.522Z,20.27
2018-04-18T01:03:13.764Z,19.37
2018-04-18T01:05:40.027Z,18.70
2018-04-18T01:08:06.267Z,18.97
2018-04-18T01:10:32.525Z,19.33
2018-04-18T01:12:58.810Z,17.70
2018-04-18T01:15:32.095Z,26.00
2018-04-18T01:17:58.370Z,19.00
2018-04-18T01:20:24.615Z,19.70
2018-04-18T01:22:50.848Z,19.83
2018-04-18T01:25:17.115Z,19.23
2018-04-18T01:27:43.355Z,19.07
2018-04-18T01:30:09.618Z,19.57
2018-04-18T01:32:35.859Z,19.20
2018-04-18T01:35:02.099Z,18.80
2018-04-18T01:37:28.355Z,19.93
2018-04-18T01:39:54.606Z,19.43
2018-04-18T01:42:20.899Z,18.80
2018-04-18T01:44:47.187Z,18.83
2018-04-18T01:47:13.426Z,19.20
2018-04-18T01:49:39.702Z,19.17
2018-04-18T01:52:05.974Z,19.70
2018-04-18T01:54:32.206Z,20.33
2018-04-18T01:56:58.435Z,19.07
2018-04-18T01:59:24.773Z,18.53
2018-04-18T02:01:50.979Z,19.20
2018-04-18T02:04:17.211Z,20.33
2018-04-18T02:06:43.471Z,19.57
2018-04-18T02:09:09.699Z,19.40
2018-04-18T02:11:36.011Z,20.67
2018-04-18T02:14:02.250Z,19.97
2018-04-18T02:16:28.489Z,20.87
2018-04-18T02:18:54.752Z,20.57
2018-04-18T02:21:21.018Z,23.20
2018-04-18T02:23:47.282Z,19.40
2018-04-18T02:26:13.523Z,21.30
2018-04-18T02:28:39.799Z,19.57
2018-04-18T02:31:06.115Z,20.07
2018-04-18T02:33:32.386Z,19.67
2018-04-18T02:35:58.678Z,20.27
2018-04-18T02:38:24.936Z,19.37
2018-04-18T02:40:51.175Z,19.33
2018-04-18T02:43:17.427Z,19.67
2018-04-18T02:45:43.671Z,22.17
2018-04-18T02:48:09.956Z,19.03
2018-04-18T02:50:36.243Z,17.80
2018-04-18T02:53:02.492Z,20.13
2018-04-18T02:55:28.750Z,19.47
2018-04-18T02:57:55.007Z,21.00
2018-04-18T03:00:21.282Z,19.03
2018-04-18T03:02:47.525Z,21.90
2018-04-18T03:05:13.770Z,19.77
2018-04-18T03:07:40.036Z,20.00
2018-04-18T03:10:06.269Z,21.40
2018-04-18T03:12:32.534Z,20.60
2018-04-18T03:14:58.771Z,19.77
2018-04-18T03:17:25.010Z,19.97
2018-04-18T03:19:51.316Z,21.57
2018-04-18T03:22:17.546Z,21.30
2018-04-18T03:24:43.827Z,20.77
2018-04-18T03:27:10.064Z,19.93
2018-04-18T03:29:36.291Z,20.80
2018-04-18T03:32:02.579Z,21.27
2018-04-18T03:34:28.859Z,19.03
2018-04-18T03:36:55.123Z,20.20
2018-04-18T03:39:21.359Z,20.00
2018-04-18T03:41:47.610Z,19.47
2018-04-18T03:44:13.891Z,18.83
2018-04-18T03:46:40.175Z,20.10
2018-04-18T03:49:06.443Z,20.60
2018-04-18T03:51:32.678Z,19.33
2018-04-18T03:53:58.932Z,20.23
2018-04-18T03:56:25.187Z,19.13
2018-04-18T03:58:51.424Z,19.27
2018-04-18T04:01:17.700Z,19.50
2018-04-18T04:03:43.933Z,19.77
2018-04-18T04:06:10.178Z,18.77
2018-04-18T04:08:36.440Z,19.20
2018-04-18T04:11:02.691Z,19.27
2018-04-18T04:13:28.987Z,17.50
2018-04-18T04:15:55.258Z,18.53
2018-04-18T04:18:33.831Z,19.10
2018-04-18T04:21:12.395Z,19.03
2018-04-18T04:23:50.939Z,21.17
2018-04-18T04:26:17.170Z,17.87
2018-04-18T04:28:43.398Z,17.93
2018-04-18T04:31:09.650Z,21.30
2018-04-18T04:33:35.932Z,19.53
2018-04-18T04:36:02.247Z,21.33
2018-04-18T04:38:28.478Z,18.43
2018-04-18T04:40:54.735Z,18.77
2018-04-18T04:43:20.983Z,18.80
2018-04-18T04:45:47.227Z,18.97
2018-04-18T04:48:13.495Z,18.50
2018-04-18T04:50:39.731Z,19.60
2018-04-18T04:53:05.997Z,18.43
2018-04-18T04:55:32.256Z,17.60
2018-04-18T04:57:58.514Z,17.23
2018-04-18T05:00:24.832Z,17.43
2018-04-18T05:02:51.072Z,19.07
2018-04-18T05:05:17.302Z,17.73
2018-04-18T05:07:43.554Z,18.43
2018-04-18T05:10:09.787Z,17.80
2018-04-18T05:12:36.050Z,17.27
2018-04-18T05:15:02.305Z,18.37
2018-04-18T05:17:28.542Z,18.57
2018-04-18T05:19:54.798Z,18.47
2018-04-18T05:22:21.026Z,19.70
2018-04-18T05:24:47.287Z,18.87
2018-04-18T05:27:13.548Z,18.77
2018-04-18T05:29:39.791Z,19.10
2018-04-18T05:32:06.063Z,19.53
2018-04-18T05:34:32.302Z,18.53
2018-04-18T05:36:58.568Z,19.03
2018-04-18T05:39:24.812Z,18.87
2018-04-18T05:41:51.071Z,20.00
2018-04-18T05:44:17.330Z,20.27
2018-04-18T05:46:43.589Z,20.30
2018-04-18T05:49:09.854Z,19.50
2018-04-18T05:51:36.114Z,18.70
2018-04-18T05:54:02.356Z,19.60
2018-04-18T05:56:28.667Z,19.73
2018-04-18T05:58:54.967Z,20.30
2018-04-18T06:01:21.217Z,19.77
2018-04-18T06:03:47.445Z,19.03
2018-04-18T06:06:13.725Z,20.93
2018-04-18T06:08:39.983Z,18.87
2018-04-18T06:11:06.219Z,19.03
2018-04-18T06:13:32.479Z,18.27
2018-04-18T06:15:58.714Z,17.90
2018-04-18T06:18:24.970Z,19.43
2018-04-18T06:20:51.211Z,19.07
2018-04-18T06:23:17.446Z,18.27
2018-04-18T06:25:43.699Z,19.23
2018-04-18T06:28:09.951Z,17.67
2018-04-18T06:30:36.215Z,18.97
2018-04-18T06:33:02.444Z,17.83
2018-04-18T06:35:28.686Z,18.03
2018-04-18T06:37:54.967Z,17.33
2018-04-18T06:40:21.206Z,17.17
2018-04-18T06:42:47.534Z,17.33
2018-04-18T06:45:13.795Z,15.77
2018-04-18T06:47:40.031Z,14.80
2018-04-18T06:50:06.283Z,15.93
2018-04-18T06:52:32.522Z,15.53
2018-04-18T06:54:58.813Z,15.13
2018-04-18T06:57:25.055Z,15.30
2018-04-18T06:59:51.303Z,15.07
2018-04-18T07:02:17.564Z,14.03
2018-04-18T07:04:43.795Z,14.97
2018-04-18T07:07:10.058Z,14.50
2018-04-18T07:09:36.296Z,13.50
2018-04-18T07:12:02.547Z,14.37
2018-04-18T07:14:28.823Z,13.47
2018-04-18T07:16:55.058Z,13.10
2018-04-18T07:19:21.327Z,12.33
2018-04-18T07:21:47.563Z,13.00
2018-04-18T07:24:13.823Z,13.57
2018-04-18T07:26:40.099Z,13.07
2018-04-18T07:29:06.351Z,13.00
2018-04-18T07:31:32.621Z,13.87
2018-04-18T07:33:58.875Z,13.70
2018-04-18T07:36:25.139Z,11.97
2018-04-18T07:38:51.442Z,11.87
2018-04-18T07:41:17.695Z,11.37
2018-04-18T07:43:43.995Z,9.73
2018-04-18T07:46:10.239Z,10.77
2018-04-18T07:48:36.478Z,10.63
2018-04-18T07:51:02.749Z,9.87
2018-04-18T07:53:28.991Z,9.67
2018-04-18T07:55:55.323Z,9.40
2018-04-18T07:58:21.615Z,8.70
2018-04-18T08:00:47.865Z,8.13
2018-04-18T08:03:14.148Z,7.60
2018-04-18T08:05:40.391Z,7.13
2018-04-18T08:08:06.687Z,7.12
2018-04-18T08:10:32.934Z,7.15
2018-04-18T08:12:59.222Z,7.40
2018-04-18T08:15:25.576Z,6.55
2018-04-18T08:17:51.758Z,6.10
2018-04-18T08:20:18.035Z,6.32
2018-04-18T08:22:44.311Z,5.65
2018-04-18T08:25:10.542Z,6.28
2018-04-18T08:27:36.860Z,5.97
2018-04-18T08:30:03.132Z,6.90
2018-04-18T08:32:29.403Z,5.90
2018-04-18T08:34:55.642Z,5.53
2018-04-18T08:37:21.898Z,5.12
2018-04-18T08:39:48.158Z,5.03
2018-04-18T08:42:14.469Z,5.30
2018-04-18T08:44:40.746Z,5.15
2018-04-18T08:47:07.031Z,5.22
2018-04-18T08:49:33.327Z,5.35
2018-04-18T08:51:59.582Z,5.00
2018-04-18T08:54:25.830Z,5.03
2018-04-18T08:56:52.127Z,5.60
2018-04-18T08:59:18.374Z,5.40
2018-04-18T09:01:44.631Z,4.80
2018-04-18T09:04:10.903Z,5.12
2018-04-18T09:06:37.175Z,4.97
2018-04-18T09:09:03.555Z,5.03
2018-04-18T09:11:29.806Z,5.18
2018-04-18T09:13:56.052Z,4.22
2018-04-18T09:16:22.332Z,4.90
2018-04-18T09:18:48.579Z,4.75
2018-04-18T09:21:14.866Z,4.97
2018-04-18T09:23:41.135Z,4.50
2018-04-18T09:26:07.379Z,4.80
2018-04-18T09:28:33.660Z,4.95
2018-04-18T09:30:59.910Z,4.85
2018-04-18T09:33:26.237Z,5.10
2018-04-18T09:35:52.483Z,4.65
2018-04-18T09:38:18.783Z,4.32
2018-04-18T09:40:45.064Z,3.97
2018-04-18T09:43:11.329Z,4.72
2018-04-18T09:45:37.612Z,4.47
2018-04-18T09:48:03.863Z,4.85
2018-04-18T09:50:30.107Z,4.68
2018-04-18T09:52:56.367Z,4.15
2018-04-18T09:55:22.623Z,3.87
2018-04-18T09:57:48.908Z,4.12
2018-04-18T10:00:15.183Z,4.18
2018-04-18T10:02:41.458Z,4.55
2018-04-18T10:05:07.741Z,4.35
2018-04-18T10:07:34.023Z,4.18
2018-04-18T10:10:00.293Z,4.87
2018-04-18T10:12:26.582Z,4.93
2018-04-18T10:14:52.826Z,4.07
2018-04-18T10:17:19.071Z,5.75
2018-04-18T10:19:45.353Z,4.87
2018-04-18T10:22:11.610Z,4.90
2018-04-18T10:24:37.854Z,7.03
2018-04-18T10:27:04.125Z,5.78
2018-04-18T10:29:30.367Z,4.53
2018-04-18T10:31:56.637Z,4.93
2018-04-18T10:34:22.880Z,4.70
2018-04-18T10:36:49.187Z,4.40
2018-04-18T10:39:15.487Z,5.43
2018-04-18T10:41:41.735Z,4.45
2018-04-18T10:44:08.018Z,4.18
2018-04-18T10:46:34.271Z,4.35
2018-04-18T10:49:00.533Z,4.53
2018-04-18T10:51:26.807Z,4.30
2018-04-18T10:53:53.047Z,4.72
2018-04-18T10:56:19.315Z,4.28
2018-04-18T10:58:45.581Z,4.70
2018-04-18T11:01:11.827Z,4.68
2018-04-18T11:03:38.127Z,4.40
2018-04-18T11:06:04.393Z,4.22
2018-04-18T11:08:30.671Z,4.70
2018-04-18T11:10:56.939Z,4.60
2018-04-18T11:13:23.179Z,4.93
2018-04-18T11:15:49.447Z,4.82
2018-04-18T11:18:15.696Z,4.18
2018-04-18T11:20:41.990Z,4.45
2018-04-18T11:23:08.232Z,4.60
2018-04-18T11:25:34.514Z,4.53
2018-04-18T11:28:00.782Z,4.25
2018-04-18T11:30:27.035Z,3.65
2018-04-18T11:32:53.307Z,4.53
2018-04-18T11:35:19.588Z,4.32
2018-04-18T11:37:45.843Z,3.95
2018-04-18T11:40:12.152Z,4.15
2018-04-18T11:42:38.426Z,4.20
2018-04-18T11:45:04.719Z,3.70
2018-04-18T11:47:30.970Z,4.50
2018-04-18T11:49:57.243Z,4.60
2018-04-18T11:52:23.516Z,4.45
2018-04-18T11:54:49.784Z,4.20
2018-04-18T11:57:16.084Z,4.68
2018-04-18T11:59:42.341Z,4.85
2018-04-18T12:02:08.635Z,4.28
2018-04-18T12:04:34.895Z,4.20
2018-04-18T12:07:01.174Z,3.65
2018-04-18T12:09:27.455Z,3.90
2018-04-18T12:11:53.702Z,3.87
2018-04-18T12:14:19.974Z,3.95
2018-04-18T12:16:46.287Z,3.62
2018-04-18T12:19:12.539Z,4.00
2018-04-18T12:21:38.851Z,3.92
2018-04-18T12:24:05.135Z,4.50
2018-04-18T12:26:31.382Z,3.50
2018-04-18T12:28:57.665Z,4.03
2018-04-18T12:31:23.925Z,3.85
2018-04-18T12:33:50.223Z,3.47
2018-04-18T12:36:16.459Z,3.83
2018-04-18T12:38:42.702Z,3.45
2018-04-18T12:41:08.966Z,3.53
2018-04-18T12:43:35.263Z,12.98
2018-04-18T12:46:01.550Z,3.95
2018-04-18T12:48:27.801Z,3.83
2018-04-18T12:50:54.039Z,4.70
2018-04-18T12:53:20.310Z,4.82
2018-04-18T12:55:46.560Z,4.45
2018-04-18T12:58:12.854Z,3.30
2018-04-18T13:00:39.111Z,4.20
2018-04-18T13:03:05.362Z,3.80
2018-04-18T13:05:31.636Z,4.03
2018-04-18T13:07:57.913Z,4.78
2018-04-18T13:10:24.222Z,4.43
2018-04-18T13:12:50.471Z,4.47
2018-04-18T13:15:16.715Z,4.30
2018-04-18T13:17:42.989Z,4.62
2018-04-18T13:20:09.277Z,4.50
2018-04-18T13:22:35.571Z,4.90
2018-04-18T13:25:01.815Z,4.93
2018-04-18T13:27:28.072Z,5.00
2018-04-18T13:29:54.343Z,4.35
2018-04-18T13:32:20.590Z,4.40
2018-04-18T13:34:46.878Z,3.95
2018-04-18T13:37:13.144Z,3.90
2018-04-18T13:39:39.442Z,4.07
2018-04-18T13:42:05.755Z,4.30
2018-04-18T13:44:32.054Z,4.00
2018-04-18T13:46:58.346Z,4.32
2018-04-18T13:49:24.595Z,4.22
2018-04-18T13:51:50.868Z,4.40
2018-04-18T13:54:17.154Z,4.80
2018-04-18T13:56:43.424Z,4.65
2018-04-18T13:59:09.771Z,4.20
2018-04-18T14:01:36.024Z,4.62
2018-04-18T14:04:02.279Z,4.50
2018-04-18T14:06:28.548Z,4.32
2018-04-18T14:08:54.803Z,4.50
2018-04-18T14:11:21.084Z,7.28
2018-04-18T14:13:47.326Z,6.65
2018-04-18T14:16:13.588Z,5.03
2018-04-18T14:18:39.868Z,5.62
2018-04-18T14:21:06.117Z,5.43
2018-04-18T14:23:32.383Z,4.72
2018-04-18T14:25:58.665Z,6.20
2018-04-18T14:28:24.959Z,5.80
2018-04-18T14:30:51.248Z,6.37
2018-04-18T14:33:17.537Z,5.72
2018-04-18T14:35:43.896Z,6.25
2018-04-18T14:38:10.140Z,6.37
2018-04-18T14:40:36.419Z,6.18
2018-04-18T14:43:02.670Z,6.12
2018-04-18T14:45:28.955Z,7.00
2018-04-18T14:47:55.201Z,5.55
2018-04-18T14:50:21.467Z,5.95
2018-04-18T14:52:47.739Z,6.50
2018-04-18T14:55:13.987Z,6.95
2018-04-18T14:57:40.261Z,5.97
2018-04-18T15:00:06.528Z,5.37
2018-04-18T15:02:32.775Z,5.85
2018-04-18T15:04:59.042Z,5.95
2018-04-18T15:07:25.289Z,5.70
2018-04-18T15:09:51.574Z,5.12
2018-04-18T15:12:17.821Z,5.87
2018-04-18T15:14:44.064Z,5.28
2018-04-18T15:17:10.323Z,5.20
2018-04-18T15:19:36.563Z,6.12
2018-04-18T15:22:02.845Z,5.72
2018-04-18T15:24:29.108Z,4.90
2018-04-18T15:26:55.347Z,5.12
2018-04-18T15:29:21.624Z,5.00
2018-04-18T15:31:47.911Z,5.72
2018-04-18T15:34:14.195Z,5.55
2018-04-18T15:36:40.453Z,5.53
2018-04-18T15:39:06.707Z,6.15
2018-04-18T15:41:32.986Z,6.00
2018-04-18T15:43:59.226Z,6.47
2018-04-18T15:46:25.507Z,5.75
2018-04-18T15:48:51.750Z,6.60
2018-04-18T15:51:17.991Z,5.68
2018-04-18T15:53:44.295Z,6.53
2018-04-18T15:56:10.564Z,6.65
2018-04-18T15:58:36.918Z,6.68
2018-04-18T16:01:03.171Z,6.07
2018-04-18T16:03:29.428Z,6.10
2018-04-18T16:05:55.699Z,5.18
2018-04-18T16:08:21.962Z,4.85
2018-04-18T16:10:48.252Z,5.18
2018-04-18T16:13:14.496Z,5.85
2018-04-18T16:15:40.738Z,5.75
2018-04-18T16:18:07.031Z,6.07
2018-04-18T16:20:33.286Z,6.30
2018-04-18T16:22:59.579Z,6.35
2018-04-18T16:25:25.847Z,5.37
2018-04-18T16:27:52.075Z,6.87
2018-04-18T16:30:30.487Z,6.10
2018-04-18T16:32:56.763Z,6.32
2018-04-18T16:35:23.067Z,5.62
2018-04-18T16:37:49.352Z,6.20
2018-04-18T16:40:15.595Z,5.62
2018-04-18T16:42:41.863Z,5.22
2018-04-18T16:45:08.136Z,5.50
2018-04-18T16:47:34.390Z,5.67
2018-04-18T16:50:00.635Z,5.90
2018-04-18T16:52:26.867Z,5.60
2018-04-18T16:54:53.122Z,5.20
2018-04-18T16:57:19.404Z,6.50
2018-04-18T16:59:45.684Z,5.97
2018-04-18T17:02:11.926Z,5.43
2018-04-18T17:04:38.152Z,6.00
2018-04-18T17:07:04.414Z,5.40
2018-04-18T17:09:30.655Z,6.33
2018-04-18T17:11:56.935Z,5.40
2018-04-18T17:14:23.215Z,6.33
2018-04-18T17:16:49.470Z,5.97
2018-04-18T17:19:15.735Z,5.47
2018-04-18T17:21:41.986Z,6.03
2018-04-18T17:24:08.274Z,5.13
2018-04-18T17:26:34.515Z,4.77
2018-04-18T17:29:00.754Z,5.77
2018-04-18T17:31:27.081Z,4.60
2018-04-18T17:33:53.360Z,4.93
2018-04-18T17:36:19.626Z,5.07
2018-04-18T17:38:45.909Z,4.63
2018-04-18T17:41:12.146Z,5.60
2018-04-18T17:43:38.419Z,4.93
2018-04-18T17:46:04.671Z,5.77
2018-04-18T17:48:30.984Z,13.87
2018-04-18T17:50:57.253Z,30.93
2018-04-18T17:53:23.495Z,7.70
2018-04-18T17:55:49.793Z,5.57
2018-04-18T17:58:16.038Z,4.70
2018-04-18T18:00:42.316Z,5.37
2018-04-18T18:03:08.582Z,4.93
2018-04-18T18:05:34.823Z,5.17
2018-04-18T18:08:01.095Z,5.23
2018-04-18T18:10:27.367Z,4.93
2018-04-18T18:12:53.643Z,4.60
2018-04-18T18:15:19.894Z,4.30
2018-04-18T18:17:46.176Z,4.40
2018-04-18T18:20:12.439Z,4.00
2018-04-18T18:22:38.704Z,4.33
2018-04-18T18:25:04.986Z,4.60
2018-04-18T18:27:31.299Z,4.37
2018-04-18T18:29:57.550Z,4.30
2018-04-18T18:32:23.795Z,3.90
2018-04-18T18:34:50.061Z,3.63
2018-04-18T18:37:16.316Z,4.60
2018-04-18T18:39:42.563Z,4.03
2018-04-18T18:42:08.832Z,4.23
2018-04-18T18:44:35.095Z,4.23
2018-04-18T18:47:01.365Z,4.40
2018-04-18T18:49:27.611Z,4.43
2018-04-18T18:51:53.856Z,4.57
2018-04-18T18:54:20.151Z,4.63
2018-04-18T18:56:46.387Z,4.97
2018-04-18T18:59:12.652Z,5.37
2018-04-18T19:01:38.887Z,5.30
2018-04-18T19:04:05.140Z,5.30
2018-04-18T19:06:31.398Z,4.90
2018-04-18T19:08:57.637Z,5.13
2018-04-18T19:11:23.919Z,4.90
2018-04-18T19:13:50.181Z,5.43
2018-04-18T19:16:16.476Z,4.57
2018-04-18T19:18:42.738Z,4.80
2018-04-18T19:21:08.976Z,6.20
2018-04-18T19:23:35.253Z,6.33
2018-04-18T19:26:01.496Z,5.97
2018-04-18T19:28:27.870Z,5.87
2018-04-18T19:30:54.031Z,5.27
2018-04-18T19:33:20.259Z,4.70
2018-04-18T19:35:46.626Z,5.00
2018-04-18T19:38:12.887Z,4.73
2018-04-18T19:40:39.134Z,4.40
2018-04-18T19:43:05.440Z,4.23
2018-04-18T19:45:31.682Z,4.43
2018-04-18T19:47:57.956Z,4.70
2018-04-18T19:50:24.203Z,4.63
2018-04-18T19:52:50.448Z,4.47
2018-04-18T19:55:17.851Z,4.50
2018-04-18T19:57:44.116Z,4.60
2018-04-18T20:00:10.391Z,4.37
2018-04-18T20:02:36.629Z,4.57
2018-04-18T20:05:02.919Z,4.63
2018-04-18T20:07:29.171Z,4.67
2018-04-18T20:09:55.432Z,4.87
2018-04-18T20:12:21.703Z,4.47
2018-04-18T20:14:47.958Z,4.70
2018-04-18T20:17:14.191Z,5.30
2018-04-18T20:19:40.455Z,4.67
2018-04-18T20:22:06.692Z,4.97
2018-04-18T20:24:32.959Z,5.23
2018-04-18T20:26:59.191Z,4.77
2018-04-18T20:29:25.459Z,4.90
2018-04-18T20:31:51.726Z,4.77
2018-04-18T20:34:17.987Z,4.67
2018-04-18T20:36:53.151Z,5.07
2018-04-18T20:39:19.388Z,5.50
2018-04-18T20:41:54.859Z,4.80
2018-04-18T20:44:21.102Z,4.93
2018-04-18T20:46:47.336Z,4.93
2018-04-18T20:49:13.587Z,5.30
2018-04-18T20:51:39.812Z,5.83
2018-04-18T20:54:06.083Z,5.77
2018-04-18T20:56:32.347Z,5.27
2018-04-18T20:58:58.584Z,5.67
2018-04-18T21:01:24.835Z,6.27
2018-04-18T21:03:51.066Z,6.23
2018-04-18T21:06:17.338Z,5.07
2018-04-18T21:08:43.631Z,5.20
2018-04-18T21:11:09.864Z,4.53
2018-04-18T21:13:36.118Z,5.13
2018-04-18T21:16:02.371Z,5.10
2018-04-18T21:18:28.656Z,5.00
2018-04-18T21:20:54.909Z,4.77
2018-04-18T21:23:21.135Z,5.13
2018-04-18T21:25:47.388Z,5.30
2018-04-18T21:28:13.619Z,5.63
2018-04-18T21:30:39.927Z,5.43
2018-04-18T21:33:06.155Z,5.07
2018-04-18T21:35:32.402Z,5.50
2018-04-18T21:37:58.659Z,5.30
2018-04-18T21:40:24.896Z,5.77
2018-04-18T21:42:51.207Z,5.63
2018-04-18T21:45:17.462Z,5.70
2018-04-18T21:47:43.699Z,5.20
2018-04-18T21:50:09.963Z,5.37
2018-04-18T21:52:36.190Z,4.97
2018-04-18T21:55:02.493Z,5.00
2018-04-18T21:57:28.720Z,5.80
2018-04-18T22:00:13.337Z,5.30
2018-04-18T22:08:38.623Z,5.50
2018-04-18T22:11:05.007Z,5.20
2018-04-18T22:13:31.323Z,5.80
2018-04-18T22:15:57.587Z,5.80
2018-04-18T22:18:23.811Z,5.83
2018-04-18T22:20:50.081Z,6.13
2018-04-18T22:23:16.327Z,6.23
2018-04-18T22:25:42.591Z,7.10
2018-04-18T22:28:08.827Z,6.47
2018-04-18T22:30:47.403Z,6.33
2018-04-18T22:33:13.635Z,6.87
2018-04-18T22:35:39.871Z,5.90
2018-04-18T22:38:06.128Z,6.00
2018-04-18T22:40:32.354Z,6.30
2018-04-18T22:42:58.618Z,6.83
2018-04-18T22:45:24.871Z,6.17
2018-04-18T22:47:51.132Z,6.23
2018-04-18T22:50:17.387Z,6.17
2018-04-18T22:52:43.651Z,6.43
2018-04-18T22:55:09.887Z,5.90
2018-04-18T22:57:36.110Z,6.27
2018-04-18T23:00:02.456Z,6.17
2018-04-18T23:02:28.687Z,6.80
2018-04-18T23:04:54.919Z,7.33
2018-04-18T23:07:21.187Z,6.53
2018-04-18T23:09:47.451Z,6.93
2018-04-18T23:12:13.731Z,6.60
2018-04-18T23:14:39.968Z,6.77
2018-04-18T23:17:06.232Z,6.87
2018-04-18T23:19:32.467Z,6.73
2018-04-18T23:21:58.696Z,6.47
2018-04-18T23:24:24.995Z,6.90
2018-04-18T23:26:51.230Z,7.23
2018-04-18T23:29:17.457Z,6.27
2018-04-18T23:31:43.724Z,6.63
2018-04-18T23:34:09.964Z,6.40
2018-04-18T23:36:36.203Z,6.83
2018-04-18T23:39:02.545Z,6.43
2018-04-18T23:41:28.771Z,6.37
2018-04-18T23:43:55.076Z,6.53
2018-04-18T23:46:21.327Z,6.87
2018-04-18T23:48:47.559Z,7.07
2018-04-18T23:51:14.629Z,6.63
2018-04-18T23:53:40.862Z,6.90
2018-04-18T23:56:07.127Z,7.60
2018-04-18T23:58:33.356Z,7.33
